createdAt,value
2019-03-01T00:01:31.602Z,9.72
2019-03-01T00:04:05.053Z,9.70
2019-03-01T00:07:12.330Z,9.58
2019-03-01T00:10:19.599Z,9.48
2019-03-01T00:13:27.234Z,9.43
2019-03-01T00:16:20.503Z,9.41
2019-03-01T00:19:12.654Z,9.43
2019-03-01T00:22:16.211Z,9.48
2019-03-01T00:25:23.450Z,9.51
2019-03-01T00:39:32.049Z,9.49
2019-03-01T00:42:26.270Z,9.48
2019-03-01T00:44:55.481Z,9.45
2019-03-01T00:47:24.969Z,9.48
2019-03-01T00:49:54.234Z,9.47
2019-03-01T00:52:23.753Z,9.52
2019-03-01T00:54:53.054Z,9.53
2019-03-01T00:57:22.251Z,9.56
2019-03-01T00:59:51.756Z,9.63
2019-03-01T01:02:20.986Z,9.69
2019-03-01T01:04:50.255Z,9.68
2019-03-01T01:07:19.455Z,9.72
2019-03-01T01:09:48.688Z,9.72
2019-03-01T01:15:07.003Z,9.74
2019-03-01T01:17:36.256Z,9.79
2019-03-01T01:20:05.892Z,9.84
2019-03-01T01:22:35.092Z,9.81
2019-03-01T01:27:59.828Z,9.83
2019-03-01T01:30:29.129Z,9.83
2019-03-01T01:32:58.330Z,9.85
2019-03-01T01:36:08.906Z,9.90
2019-03-01T01:38:38.403Z,9.84
2019-03-01T01:41:07.664Z,9.82
2019-03-01T01:43:37.708Z,9.81
2019-03-01T01:46:06.921Z,9.78
2019-03-01T01:48:36.155Z,9.79
2019-03-01T01:51:05.376Z,9.82
2019-03-01T01:53:34.570Z,9.84
2019-03-01T01:56:03.854Z,9.85
2019-03-01T01:58:33.062Z,9.87
2019-03-01T02:01:02.328Z,9.96
2019-03-01T02:03:31.851Z,9.89
2019-03-01T02:06:01.685Z,9.86
2019-03-01T02:08:30.993Z,9.84
2019-03-01T02:11:00.227Z,9.82
2019-03-01T02:13:29.429Z,9.75
2019-03-01T02:15:58.732Z,9.69
2019-03-01T02:18:28.652Z,9.65
2019-03-01T02:20:58.213Z,9.59
2019-03-01T02:23:27.464Z,9.60
2019-03-01T02:25:57.004Z,9.57
2019-03-01T02:28:26.232Z,9.56
2019-03-01T02:30:55.994Z,9.62
2019-03-01T02:33:25.232Z,9.60
2019-03-01T02:35:54.472Z,9.61
2019-03-01T02:38:23.674Z,9.60
2019-03-01T02:40:52.936Z,9.57
2019-03-01T02:43:22.133Z,9.58
2019-03-01T02:45:51.368Z,9.54
2019-03-01T02:48:20.626Z,9.49
2019-03-01T02:50:49.913Z,9.44
2019-03-01T02:53:19.127Z,9.42
2019-03-01T02:55:48.336Z,9.36
2019-03-01T02:58:17.870Z,9.42
2019-03-01T03:00:47.097Z,9.51
2019-03-01T03:03:16.656Z,9.52
2019-03-01T03:06:04.865Z,9.50
2019-03-01T03:08:34.876Z,9.49
2019-03-01T03:11:04.109Z,9.31
2019-03-01T03:13:33.713Z,9.26
2019-03-01T03:16:02.913Z,9.25
2019-03-01T03:18:32.204Z,9.20
2019-03-01T03:21:01.427Z,9.36
2019-03-01T03:23:30.650Z,9.45
2019-03-01T03:26:00.236Z,9.49
2019-03-01T03:28:30.073Z,9.45
2019-03-01T03:30:59.392Z,9.35
2019-03-01T03:33:29.183Z,9.21
2019-03-01T03:35:58.367Z,9.19
2019-03-01T03:38:27.693Z,9.18
2019-03-01T03:40:56.987Z,9.15
2019-03-01T03:43:26.319Z,9.14
2019-03-01T03:45:55.612Z,9.01
2019-03-01T03:48:24.991Z,9.04
2019-03-01T03:53:45.054Z,8.95
2019-03-01T03:56:14.259Z,8.88
2019-03-01T03:58:43.503Z,8.85
2019-03-01T04:01:12.996Z,8.86
2019-03-01T04:03:42.251Z,8.83
2019-03-01T04:06:11.451Z,8.83
2019-03-01T04:08:40.958Z,8.81
2019-03-01T04:11:10.151Z,8.89
2019-03-01T04:13:39.488Z,8.84
2019-03-01T04:16:08.694Z,8.70
2019-03-01T04:18:37.918Z,8.71
2019-03-01T04:21:07.123Z,8.76
2019-03-01T04:23:36.592Z,8.87
2019-03-01T04:26:05.805Z,8.84
2019-03-01T04:28:35.032Z,8.75
2019-03-01T04:31:04.889Z,8.72
2019-03-01T04:33:34.122Z,8.66
2019-03-01T04:36:04.359Z,8.66
2019-03-01T04:38:34.042Z,8.69
2019-03-01T04:41:04.495Z,8.73
2019-03-01T04:54:46.919Z,8.66
2019-03-01T04:57:17.668Z,8.63
2019-03-01T05:26:51.515Z,8.26
2019-03-01T05:29:20.955Z,8.28
2019-03-01T05:31:50.414Z,8.22
2019-03-01T05:34:20.898Z,8.25
2019-03-01T05:36:50.690Z,8.18
2019-03-01T05:39:20.362Z,8.21
2019-03-01T05:41:49.640Z,8.19
2019-03-01T05:44:18.952Z,8.14
2019-03-01T05:46:48.361Z,8.14
2019-03-01T05:49:18.186Z,8.16
2019-03-01T05:51:47.433Z,8.13
2019-03-01T05:54:16.703Z,8.14
2019-03-01T05:56:45.954Z,8.13
2019-03-01T05:59:24.036Z,8.18
2019-03-01T06:02:31.635Z,8.21
2019-03-01T06:05:21.178Z,8.23
2019-03-01T06:24:35.470Z,8.45
2019-03-01T06:36:07.226Z,8.48
2019-03-01T06:50:27.246Z,8.47
2019-03-01T06:52:56.757Z,8.46
2019-03-01T06:58:20.674Z,8.44
2019-03-01T07:03:42.557Z,8.47
2019-03-01T07:06:11.799Z,8.46
2019-03-01T07:08:41.330Z,8.45
2019-03-01T07:11:10.602Z,8.40
2019-03-01T07:13:39.841Z,8.44
2019-03-01T07:16:09.096Z,8.44
2019-03-01T07:18:38.749Z,8.45
2019-03-01T07:21:07.990Z,8.48
2019-03-01T07:23:37.290Z,8.47
2019-03-01T07:26:06.484Z,8.49
2019-03-01T07:28:35.761Z,8.51
2019-03-01T07:31:06.989Z,8.51
2019-03-01T07:33:36.011Z,8.53
2019-03-01T07:36:05.248Z,8.55
2019-03-01T07:38:34.549Z,8.65
2019-03-01T07:41:04.030Z,8.64
2019-03-01T07:43:33.305Z,8.62
2019-03-01T07:46:02.879Z,8.68
2019-03-01T07:48:32.195Z,8.71
2019-03-01T07:51:02.504Z,8.73
2019-03-01T07:53:36.134Z,8.74
2019-03-01T07:56:13.650Z,8.74
2019-03-01T07:58:43.287Z,8.78
2019-03-01T08:01:12.895Z,8.81
2019-03-01T08:03:42.162Z,8.75
2019-03-01T08:06:13.467Z,8.78
2019-03-01T08:08:42.384Z,8.82
2019-03-01T08:11:14.011Z,8.84
2019-03-01T08:13:43.236Z,8.91
2019-03-01T08:16:12.531Z,8.83
2019-03-01T08:18:44.134Z,8.84
2019-03-01T08:21:14.895Z,8.87
2019-03-01T08:23:44.628Z,8.90
2019-03-01T08:26:14.399Z,8.80
2019-03-01T08:28:43.945Z,8.86
2019-03-01T08:31:13.230Z,8.90
2019-03-01T08:33:43.678Z,8.91
2019-03-01T08:36:13.823Z,8.85
2019-03-01T08:38:43.059Z,8.84
2019-03-01T08:41:12.353Z,8.85
2019-03-01T08:43:44.720Z,8.87
2019-03-01T08:46:12.767Z,8.89
2019-03-01T08:48:42.387Z,8.84
2019-03-01T08:51:11.646Z,8.85
2019-03-01T08:53:41.151Z,8.85
2019-03-01T08:56:10.899Z,8.80
2019-03-01T08:58:42.532Z,8.75
2019-03-01T09:01:13.484Z,8.76
2019-03-01T09:03:46.566Z,8.74
2019-03-01T09:06:15.831Z,8.73
2019-03-01T09:08:46.243Z,8.76
2019-03-01T09:11:16.387Z,8.67
2019-03-01T09:13:45.611Z,8.54
2019-03-01T09:16:14.929Z,8.40
2019-03-01T09:18:46.593Z,8.35
2019-03-01T09:21:15.548Z,8.42
2019-03-01T09:23:48.038Z,8.40
2019-03-01T09:26:16.703Z,8.38
2019-03-01T09:28:47.177Z,8.47
2019-03-01T09:31:17.901Z,8.40
2019-03-01T09:33:47.170Z,8.38
2019-03-01T09:39:47.062Z,8.32
2019-03-01T09:42:16.399Z,8.22
2019-03-01T09:44:45.652Z,8.17
2019-03-01T09:47:14.905Z,8.14
2019-03-01T09:50:03.355Z,8.13
2019-03-01T09:52:32.975Z,8.08
2019-03-01T09:55:02.872Z,8.12
2019-03-01T09:57:32.517Z,8.01
2019-03-01T10:00:01.793Z,7.97
2019-03-01T10:02:31.031Z,7.83
2019-03-01T10:05:00.638Z,7.87
2019-03-01T10:07:49.926Z,7.86
2019-03-01T10:10:21.585Z,7.86
2019-03-01T10:12:50.844Z,7.77
2019-03-01T10:15:20.111Z,7.83
2019-03-01T10:17:49.339Z,7.83
2019-03-01T10:20:18.645Z,7.72
2019-03-01T10:22:47.855Z,7.70
2019-03-01T10:25:17.211Z,7.65
2019-03-01T10:27:46.532Z,7.59
2019-03-01T10:30:20.623Z,7.56
2019-03-01T10:32:49.843Z,7.52
2019-03-01T10:35:19.056Z,7.51
2019-03-01T10:37:48.275Z,7.51
2019-03-01T10:40:19.095Z,7.45
2019-03-01T10:42:48.884Z,7.48
2019-03-01T10:45:20.635Z,7.52
2019-03-01T10:47:49.865Z,7.50
2019-03-01T10:50:19.665Z,7.54
2019-03-01T11:01:35.047Z,7.59
2019-03-01T11:14:16.977Z,7.63
2019-03-01T11:21:10.929Z,7.71
2019-03-01T12:25:10.752Z,7.90
2019-03-01T12:27:40.082Z,7.86
2019-03-01T12:30:12.615Z,7.81
2019-03-01T12:32:42.173Z,7.92
2019-03-01T12:35:11.554Z,7.96
2019-03-01T12:37:41.313Z,8.00
2019-03-01T12:40:30.730Z,7.95
2019-03-01T12:42:59.983Z,7.93
2019-03-01T12:45:29.269Z,7.84
2019-03-01T12:47:58.531Z,7.84
2019-03-01T12:50:27.844Z,7.83
2019-03-01T12:52:57.735Z,7.78
2019-03-01T12:55:26.978Z,7.81
2019-03-01T13:00:51.177Z,7.86
2019-03-01T13:03:20.841Z,7.89
2019-03-01T13:05:50.174Z,7.92
2019-03-01T13:08:19.806Z,7.91
2019-03-01T13:10:49.059Z,7.87
2019-03-01T13:13:18.376Z,7.93
2019-03-01T13:15:49.624Z,7.89
2019-03-01T13:18:18.847Z,7.89
2019-03-01T13:21:09.701Z,7.92
2019-03-01T13:23:40.486Z,7.88
2019-03-01T13:26:28.158Z,7.86
2019-03-01T13:28:57.735Z,7.90
2019-03-01T13:31:26.947Z,7.81
2019-03-01T13:33:56.769Z,7.83
2019-03-01T13:36:26.041Z,7.78
2019-03-01T13:38:55.327Z,7.72
2019-03-01T13:41:25.377Z,7.77
2019-03-01T13:43:56.219Z,7.81
2019-03-01T13:46:29.953Z,7.80
2019-03-01T13:48:57.384Z,7.75
2019-03-01T13:51:26.660Z,7.75
2019-03-01T13:53:55.931Z,7.80
2019-03-01T13:57:04.806Z,7.80
2019-03-01T13:59:37.566Z,7.79
2019-03-01T14:05:17.067Z,7.74
2019-03-01T14:10:24.494Z,7.77
2019-03-01T14:12:54.142Z,7.77
2019-03-01T14:18:33.377Z,7.82
2019-03-01T14:21:03.969Z,7.79
2019-03-01T14:23:34.008Z,7.77
2019-03-01T14:26:03.531Z,7.76
2019-03-01T14:28:33.354Z,7.83
2019-03-01T14:31:03.996Z,7.83
2019-03-01T14:33:34.367Z,7.85
2019-03-01T14:36:03.829Z,7.81
2019-03-01T14:38:33.167Z,7.42
2019-03-01T14:41:02.452Z,7.25
2019-03-01T14:43:32.036Z,7.16
2019-03-01T14:46:01.788Z,7.14
2019-03-01T14:48:31.677Z,7.11
2019-03-01T14:51:01.375Z,7.07
2019-03-01T14:56:34.837Z,6.97
2019-03-01T14:59:24.727Z,6.92
2019-03-01T15:02:04.212Z,6.88
2019-03-01T15:04:54.388Z,6.87
2019-03-01T15:07:27.923Z,6.83
2019-03-01T15:09:57.173Z,6.80
2019-03-01T15:12:27.277Z,6.84
2019-03-01T15:14:56.554Z,6.88
2019-03-01T15:17:25.780Z,6.84
2019-03-01T15:19:55.328Z,6.83
2019-03-01T15:22:27.525Z,6.84
2019-03-01T15:24:56.874Z,6.67
2019-03-01T15:27:44.998Z,6.77
2019-03-01T15:30:14.672Z,6.71
2019-03-01T15:32:43.889Z,6.63
2019-03-01T15:35:13.152Z,6.62
2019-03-01T15:37:42.383Z,6.56
2019-03-01T15:40:11.687Z,6.56
2019-03-01T15:42:40.922Z,6.54
2019-03-01T15:45:10.560Z,6.45
2019-03-01T15:47:40.102Z,6.41
2019-03-01T15:50:10.088Z,6.36
2019-03-01T15:52:39.369Z,6.40
2019-03-01T15:55:11.796Z,6.35
2019-03-01T15:57:39.793Z,6.39
2019-03-01T16:00:31.009Z,6.43
2019-03-01T16:03:00.290Z,6.41
2019-03-01T16:05:29.857Z,6.37
2019-03-01T16:07:59.142Z,6.30
2019-03-01T16:10:28.336Z,6.21
2019-03-01T16:12:57.890Z,6.19
2019-03-01T16:15:27.739Z,6.16
2019-03-01T16:17:57.605Z,6.19
2019-03-01T16:20:28.602Z,6.22
2019-03-01T16:22:59.105Z,6.21
2019-03-01T16:25:28.313Z,6.23
2019-03-01T16:27:57.905Z,6.25
2019-03-01T16:30:27.120Z,6.24
2019-03-01T16:32:56.385Z,6.22
2019-03-01T16:35:25.650Z,6.18
2019-03-01T16:40:32.262Z,6.13
2019-03-01T16:43:01.511Z,6.12
2019-03-01T16:45:31.020Z,6.15
2019-03-01T16:48:00.996Z,6.15
2019-03-01T16:50:31.295Z,6.17
2019-03-01T16:53:04.291Z,6.14
2019-03-01T16:55:50.859Z,6.08
2019-03-01T16:58:20.110Z,6.12
2019-03-01T17:00:50.697Z,6.15
2019-03-01T17:03:20.365Z,6.12
2019-03-01T17:14:47.801Z,6.24
2019-03-01T17:17:17.027Z,6.24
2019-03-01T17:19:47.272Z,6.23
2019-03-01T17:22:36.577Z,6.27
2019-03-01T17:25:06.457Z,6.24
2019-03-01T17:27:36.720Z,6.29
2019-03-01T17:30:31.080Z,6.31
2019-03-01T17:33:01.429Z,6.30
2019-03-01T17:35:30.673Z,6.35
2019-03-01T17:37:59.939Z,6.31
2019-03-01T17:40:32.427Z,6.32
2019-03-01T17:43:00.860Z,6.37
2019-03-01T17:45:30.459Z,6.34
2019-03-01T17:47:59.707Z,6.35
2019-03-01T17:50:48.601Z,6.39
2019-03-01T17:53:20.411Z,6.37
2019-03-01T17:55:49.815Z,6.32
2019-03-01T17:58:19.072Z,6.33
2019-03-01T18:00:48.681Z,6.40
2019-03-01T18:03:37.016Z,6.40
2019-03-01T18:06:06.310Z,6.40
2019-03-01T18:08:35.829Z,6.43
2019-03-01T18:11:26.395Z,6.41
2019-03-01T18:13:56.848Z,6.37
2019-03-01T18:16:27.192Z,6.36
2019-03-01T18:18:56.776Z,6.43
2019-03-01T18:21:25.999Z,6.42
2019-03-01T18:23:55.547Z,6.45
2019-03-01T18:26:24.808Z,6.44
2019-03-01T18:29:13.474Z,6.44
2019-03-01T18:31:43.097Z,6.44
2019-03-01T18:34:12.432Z,6.43
2019-03-01T18:36:41.725Z,6.43
2019-03-01T18:39:12.113Z,6.43
2019-03-01T18:41:41.561Z,6.42
2019-03-01T18:44:10.764Z,6.39
2019-03-01T18:46:40.645Z,6.41
2019-03-01T18:49:10.171Z,6.41
2019-03-01T18:51:43.287Z,6.36
2019-03-01T18:54:10.729Z,6.34
2019-03-01T18:56:40.439Z,6.36
2019-03-01T18:59:09.688Z,6.42
2019-03-01T19:01:39.310Z,6.41
2019-03-01T19:04:08.815Z,6.39
2019-03-01T19:06:57.260Z,6.41
2019-03-01T19:09:26.552Z,6.37
2019-03-01T19:11:57.225Z,6.37
2019-03-01T19:14:46.753Z,6.36
2019-03-01T19:17:16.002Z,6.42
2019-03-01T19:19:45.258Z,6.39
2019-03-01T19:22:36.166Z,6.37
2019-03-01T19:25:05.420Z,6.36
2019-03-01T19:27:34.971Z,6.31
2019-03-01T19:30:05.085Z,6.33
2019-03-01T19:32:54.464Z,6.34
2019-03-01T19:35:28.294Z,6.33
2019-03-01T19:37:54.802Z,6.29
2019-03-01T19:40:24.507Z,6.30
2019-03-01T19:42:53.767Z,6.30
2019-03-01T19:45:29.738Z,6.34
2019-03-01T19:48:02.993Z,6.32
2019-03-01T19:50:30.806Z,6.32
2019-03-01T20:28:07.672Z,6.38
